モンテレー の空港の天気 - METARとTAF

ヘネラル・マリアノ・エソコベド国際空港 ( MMMY / MTY ) - メキシコ ヌエボ・レオン州モンテレー
飛行場実況気象(Metar)
観測時間05/28 16:40 CDT (05/28 21:40 UTC)
風向・風速東 6m/s
視程10km以上
天気現象
なし
気温37℃
湿度24%
気圧1008hPa
METARMMMY 282140Z 09011KT 7SM SKC 37/13 A2976
過去の天気等 Google飛行場航空写真 Wunderground天気予報

過去48時間のMETAR

飛行場予報(TAF)
発表時間: 5/28 11:47 CDT (5/28 16:47 UTC)
予報対象時間: 28日13時 CDT ~ 29日19時 CDT
風向・風速南東 5m/s
視程8050m
天気現象煙霧
なし
28日14時 CDT ~ 28日15時 CDT に徐々に
風向・風速南東 7m/s
視程10km以上
天気現象煙霧
28日22時 CDT から
風向・風速東南東 3m/s
視程10km以上
天気現象煙霧
なし
29日4時 CDT ~ 29日5時 CDT に徐々に
視程4830m
天気現象もや
29日5時 CDT ~ 29日9時 CDT に一時的に
視程3220m
天気現象もや
全天の8割程度の雲 雲底高度 300m
29日10時 CDT から
風向・風速東南東 4m/s
視程6440m
天気現象煙霧
なし
29日14時 CDT から
風向・風速南東 7m/s
視程10km以上
なし
TAF MMMY 281647Z 2818/2924 13010KT 5SM HZ SKC TX35/2822Z TN22/2911Z
BECMG 2819/2820 13014KT 6SM HZ
FM290300 12006KT 6SM HZ SKC
BECMG 2909/2910 3SM BR
TEMPO 2910/2914 2SM BR BKN010
FM291500 12008KT 4SM HZ SKC
FM291900 13014KT P6SM SKC